sensor_id;sensor_type;location;lat;lon;timestamp;P1;durP1;ratioP1;P2;durP2;ratioP2
52029;SDS011;38043;53.224;6.580;2022-10-16T00:00:43;11.55;;;2.70;;
52029;SDS011;38043;53.224;6.580;2022-10-16T00:03:10;11.60;;;2.65;;
52029;SDS011;38043;53.224;6.580;2022-10-16T00:05:40;12.27;;;2.75;;
52029;SDS011;38043;53.224;6.580;2022-10-16T00:08:08;13.52;;;2.60;;
52029;SDS011;38043;53.224;6.580;2022-10-16T00:10:34;14.25;;;2.83;;
52029;SDS011;38043;53.224;6.580;2022-10-16T00:13:00;11.45;;;2.47;;
52029;SDS011;38043;53.224;6.580;2022-10-16T00:15:26;11.82;;;2.42;;
52029;SDS011;38043;53.224;6.580;2022-10-16T00:17:51;9.75;;;2.20;;
52029;SDS011;38043;53.224;6.580;2022-10-16T00:20:17;7.13;;;2.05;;
52029;SDS011;38043;53.224;6.580;2022-10-16T00:22:43;11.13;;;2.55;;
52029;SDS011;38043;53.224;6.580;2022-10-16T00:25:08;9.93;;;2.53;;
52029;SDS011;38043;53.224;6.580;2022-10-16T00:27:34;10.57;;;2.08;;
52029;SDS011;38043;53.224;6.580;2022-10-16T00:30:00;10.48;;;2.70;;
52029;SDS011;38043;53.224;6.580;2022-10-16T00:32:26;10.93;;;2.53;;
52029;SDS011;38043;53.224;6.580;2022-10-16T00:34:51;14.77;;;2.55;;
52029;SDS011;38043;53.224;6.580;2022-10-16T00:37:20;10.55;;;2.65;;
52029;SDS011;38043;53.224;6.580;2022-10-16T00:39:46;9.88;;;2.25;;
52029;SDS011;38043;53.224;6.580;2022-10-16T00:42:15;13.40;;;2.63;;
52029;SDS011;38043;53.224;6.580;2022-10-16T00:44:43;13.82;;;2.78;;
52029;SDS011;38043;53.224;6.580;2022-10-16T00:47:10;5.87;;;2.37;;
52029;SDS011;38043;53.224;6.580;2022-10-16T00:49:40;11.35;;;2.30;;
52029;SDS011;38043;53.224;6.580;2022-10-16T00:52:06;9.05;;;2.10;;
52029;SDS011;38043;53.224;6.580;2022-10-16T00:54:32;9.20;;;2.40;;
52029;SDS011;38043;53.224;6.580;2022-10-16T00:57:02;10.52;;;2.33;;
52029;SDS011;38043;53.224;6.580;2022-10-16T00:59:32;6.38;;;1.80;;
52029;SDS011;38043;53.224;6.580;2022-10-16T01:02:00;5.45;;;1.85;;
52029;SDS011;38043;53.224;6.580;2022-10-16T01:04:30;8.57;;;2.17;;
52029;SDS011;38043;53.224;6.580;2022-10-16T01:15:17;9.48;;;2.40;;
52029;SDS011;38043;53.224;6.580;2022-10-16T01:20:42;6.13;;;1.83;;
52029;SDS011;38043;53.224;6.580;2022-10-16T01:28:36;4.60;;;1.92;;
52029;SDS011;38043;53.224;6.580;2022-10-16T01:31:10;7.13;;;1.95;;
52029;SDS011;38043;53.224;6.580;2022-10-16T01:33:40;10.23;;;1.80;;
52029;SDS011;38043;53.224;6.580;2022-10-16T12:23:56;12.93;;;2.60;;
52029;SDS011;38043;53.224;6.580;2022-10-16T12:26:34;17.90;;;2.97;;
52029;SDS011;38043;53.224;6.580;2022-10-16T12:31:48;10.43;;;2.50;;
52029;SDS011;38043;53.224;6.580;2022-10-16T12:34:29;10.50;;;2.50;;
52029;SDS011;38043;53.224;6.580;2022-10-16T12:37:06;10.07;;;2.83;;
52029;SDS011;38043;53.224;6.580;2022-10-16T12:39:39;11.80;;;2.72;;
52029;SDS011;38043;53.224;6.580;2022-10-16T12:42:19;19.25;;;3.08;;
52029;SDS011;38043;53.224;6.580;2022-10-16T12:44:45;13.57;;;3.08;;
52029;SDS011;38043;53.224;6.580;2022-10-16T12:47:22;23.67;;;3.15;;
52029;SDS011;38043;53.224;6.580;2022-10-16T12:49:59;10.65;;;2.80;;
52029;SDS011;38043;53.224;6.580;2022-10-16T12:52:34;12.13;;;2.72;;
52029;SDS011;38043;53.224;6.580;2022-10-16T12:55:02;13.25;;;2.80;;
52029;SDS011;38043;53.224;6.580;2022-10-16T12:57:32;10.60;;;2.60;;
52029;SDS011;38043;53.224;6.580;2022-10-16T13:06:25;10.63;;;2.40;;
52029;SDS011;38043;53.224;6.580;2022-10-16T13:23:14;10.15;;;2.40;;
52029;SDS011;38043;53.224;6.580;2022-10-16T13:25:55;11.75;;;3.05;;
52029;SDS011;38043;53.224;6.580;2022-10-16T13:28:35;11.32;;;2.35;;
52029;SDS011;38043;53.224;6.580;2022-10-16T13:31:02;14.10;;;2.53;;
52029;SDS011;38043;53.224;6.580;2022-10-16T13:33:33;12.75;;;2.78;;
52029;SDS011;38043;53.224;6.580;2022-10-16T13:36:05;9.93;;;2.60;;
52029;SDS011;38043;53.224;6.580;2022-10-16T13:38:32;10.35;;;2.85;;
52029;SDS011;38043;53.224;6.580;2022-10-16T13:41:04;11.82;;;2.60;;
52029;SDS011;38043;53.224;6.580;2022-10-16T13:46:05;12.98;;;2.97;;
52029;SDS011;38043;53.224;6.580;2022-10-16T13:48:32;10.13;;;2.22;;
52029;SDS011;38043;53.224;6.580;2022-10-16T13:51:06;15.52;;;3.25;;
52029;SDS011;38043;53.224;6.580;2022-10-16T13:53:42;11.63;;;2.58;;
52029;SDS011;38043;53.224;6.580;2022-10-16T13:56:16;13.55;;;3.10;;
52029;SDS011;38043;53.224;6.580;2022-10-16T13:58:44;15.38;;;2.38;;
52029;SDS011;38043;53.224;6.580;2022-10-16T14:01:20;14.95;;;2.75;;
52029;SDS011;38043;53.224;6.580;2022-10-16T14:03:50;15.02;;;2.95;;
52029;SDS011;38043;53.224;6.580;2022-10-16T14:06:17;16.60;;;3.10;;
52029;SDS011;38043;53.224;6.580;2022-10-16T14:08:52;16.75;;;2.83;;
52029;SDS011;38043;53.224;6.580;2022-10-16T14:11:25;14.77;;;3.67;;
52029;SDS011;38043;53.224;6.580;2022-10-16T14:13:51;12.68;;;2.38;;
52029;SDS011;38043;53.224;6.580;2022-10-16T14:16:20;15.73;;;3.30;;
52029;SDS011;38043;53.224;6.580;2022-10-16T14:21:27;11.23;;;2.72;;
52029;SDS011;38043;53.224;6.580;2022-10-16T14:23:53;15.57;;;3.17;;
52029;SDS011;38043;53.224;6.580;2022-10-16T14:26:20;14.48;;;2.80;;
52029;SDS011;38043;53.224;6.580;2022-10-16T14:29:00;16.70;;;2.83;;
52029;SDS011;38043;53.224;6.580;2022-10-16T14:31:37;17.70;;;3.03;;
52029;SDS011;38043;53.224;6.580;2022-10-16T14:34:04;22.35;;;3.65;;
52029;SDS011;38043;53.224;6.580;2022-10-16T14:36:47;13.35;;;2.58;;
52029;SDS011;38043;53.224;6.580;2022-10-16T14:39:17;13.70;;;2.80;;
52029;SDS011;38043;53.224;6.580;2022-10-16T14:41:45;16.17;;;3.42;;
52029;SDS011;38043;53.224;6.580;2022-10-16T14:44:14;16.67;;;3.15;;
52029;SDS011;38043;53.224;6.580;2022-10-16T14:46:42;14.93;;;2.50;;
52029;SDS011;38043;53.224;6.580;2022-10-16T14:51:35;17.08;;;2.95;;
52029;SDS011;38043;53.224;6.580;2022-10-16T14:54:09;11.25;;;2.60;;
52029;SDS011;38043;53.224;6.580;2022-10-16T14:56:45;11.43;;;2.83;;
52029;SDS011;38043;53.224;6.580;2022-10-16T14:59:22;13.65;;;2.65;;
52029;SDS011;38043;53.224;6.580;2022-10-16T15:01:53;12.40;;;2.88;;
52029;SDS011;38043;53.224;6.580;2022-10-16T15:04:19;18.23;;;2.80;;
52029;SDS011;38043;53.224;6.580;2022-10-16T15:06:45;15.55;;;2.90;;
52029;SDS011;38043;53.224;6.580;2022-10-16T15:09:11;22.50;;;2.95;;
52029;SDS011;38043;53.224;6.580;2022-10-16T15:11:37;12.75;;;2.58;;
52029;SDS011;38043;53.224;6.580;2022-10-16T15:14:03;16.98;;;3.60;;
52029;SDS011;38043;53.224;6.580;2022-10-16T15:16:29;15.32;;;3.08;;
52029;SDS011;38043;53.224;6.580;2022-10-16T15:18:56;22.88;;;2.72;;
52029;SDS011;38043;53.224;6.580;2022-10-16T15:21:24;13.38;;;3.10;;
52029;SDS011;38043;53.224;6.580;2022-10-16T15:23:52;18.13;;;2.83;;
52029;SDS011;38043;53.224;6.580;2022-10-16T15:26:17;14.68;;;3.03;;
52029;SDS011;38043;53.224;6.580;2022-10-16T15:28:43;16.13;;;3.63;;
52029;SDS011;38043;53.224;6.580;2022-10-16T15:31:09;14.88;;;3.03;;
52029;SDS011;38043;53.224;6.580;2022-10-16T15:33:35;15.98;;;3.55;;
52029;SDS011;38043;53.224;6.580;2022-10-16T15:36:01;16.70;;;3.88;;
52029;SDS011;38043;53.224;6.580;2022-10-16T15:38:30;14.15;;;2.53;;
52029;SDS011;38043;53.224;6.580;2022-10-16T15:40:56;15.30;;;3.00;;
52029;SDS011;38043;53.224;6.580;2022-10-16T15:43:22;14.55;;;2.92;;
52029;SDS011;38043;53.224;6.580;2022-10-16T15:45:58;10.95;;;2.72;;
52029;SDS011;38043;53.224;6.580;2022-10-16T15:48:25;19.60;;;4.05;;
52029;SDS011;38043;53.224;6.580;2022-10-16T15:50:51;18.90;;;3.65;;
52029;SDS011;38043;53.224;6.580;2022-10-16T15:53:16;15.77;;;3.00;;
52029;SDS011;38043;53.224;6.580;2022-10-16T15:55:42;20.60;;;3.47;;
52029;SDS011;38043;53.224;6.580;2022-10-16T15:58:07;13.15;;;3.20;;
52029;SDS011;38043;53.224;6.580;2022-10-16T16:00:33;14.90;;;2.88;;
52029;SDS011;38043;53.224;6.580;2022-10-16T16:02:59;15.05;;;3.55;;
52029;SDS011;38043;53.224;6.580;2022-10-16T16:05:24;14.55;;;2.80;;
52029;SDS011;38043;53.224;6.580;2022-10-16T16:07:50;13.75;;;3.40;;
52029;SDS011;38043;53.224;6.580;2022-10-16T16:10:16;16.25;;;3.80;;
52029;SDS011;38043;53.224;6.580;2022-10-16T16:12:43;20.02;;;3.33;;
52029;SDS011;38043;53.224;6.580;2022-10-16T16:15:14;22.90;;;3.67;;
52029;SDS011;38043;53.224;6.580;2022-10-16T16:17:40;15.60;;;3.30;;
52029;SDS011;38043;53.224;6.580;2022-10-16T16:20:05;21.83;;;3.70;;
52029;SDS011;38043;53.224;6.580;2022-10-16T16:22:32;12.00;;;3.08;;
52029;SDS011;38043;53.224;6.580;2022-10-16T16:24:58;15.70;;;3.72;;
52029;SDS011;38043;53.224;6.580;2022-10-16T16:27:23;13.13;;;4.07;;
52029;SDS011;38043;53.224;6.580;2022-10-16T16:29:54;15.23;;;3.97;;
52029;SDS011;38043;53.224;6.580;2022-10-16T16:32:20;17.98;;;4.30;;
52029;SDS011;38043;53.224;6.580;2022-10-16T16:34:46;14.30;;;3.55;;
52029;SDS011;38043;53.224;6.580;2022-10-16T16:37:12;16.88;;;3.58;;
52029;SDS011;38043;53.224;6.580;2022-10-16T16:39:38;13.00;;;3.38;;
52029;SDS011;38043;53.224;6.580;2022-10-16T16:42:04;16.77;;;3.58;;
52029;SDS011;38043;53.224;6.580;2022-10-16T16:44:31;14.57;;;3.65;;
52029;SDS011;38043;53.224;6.580;2022-10-16T16:46:57;17.77;;;4.45;;
52029;SDS011;38043;53.224;6.580;2022-10-16T16:49:23;18.83;;;4.32;;
52029;SDS011;38043;53.224;6.580;2022-10-16T16:51:49;20.60;;;3.20;;
52029;SDS011;38043;53.224;6.580;2022-10-16T16:54:14;19.65;;;3.75;;
52029;SDS011;38043;53.224;6.580;2022-10-16T16:56:43;21.23;;;3.70;;
52029;SDS011;38043;53.224;6.580;2022-10-16T16:59:12;12.30;;;3.10;;
52029;SDS011;38043;53.224;6.580;2022-10-16T17:01:39;16.23;;;4.13;;
52029;SDS011;38043;53.224;6.580;2022-10-16T17:04:06;20.58;;;4.30;;
52029;SDS011;38043;53.224;6.580;2022-10-16T17:06:32;11.45;;;3.60;;
52029;SDS011;38043;53.224;6.580;2022-10-16T17:09:00;19.20;;;4.28;;
52029;SDS011;38043;53.224;6.580;2022-10-16T17:11:28;21.38;;;4.72;;
52029;SDS011;38043;53.224;6.580;2022-10-16T17:13:54;20.70;;;4.97;;
52029;SDS011;38043;53.224;6.580;2022-10-16T17:16:26;19.65;;;5.07;;
52029;SDS011;38043;53.224;6.580;2022-10-16T17:19:00;23.38;;;7.00;;
52029;SDS011;38043;53.224;6.580;2022-10-16T17:21:34;19.35;;;5.78;;
52029;SDS011;38043;53.224;6.580;2022-10-16T17:24:10;24.10;;;6.82;;
52029;SDS011;38043;53.224;6.580;2022-10-16T17:26:36;17.65;;;6.40;;
52029;SDS011;38043;53.224;6.580;2022-10-16T17:31:31;22.65;;;7.85;;
52029;SDS011;38043;53.224;6.580;2022-10-16T17:33:59;28.27;;;8.82;;
52029;SDS011;38043;53.224;6.580;2022-10-16T17:36:26;30.92;;;9.55;;
52029;SDS011;38043;53.224;6.580;2022-10-16T17:39:06;22.15;;;7.60;;
52029;SDS011;38043;53.224;6.580;2022-10-16T17:41:59;22.13;;;7.78;;
52029;SDS011;38043;53.224;6.580;2022-10-16T17:44:25;22.75;;;9.13;;
52029;SDS011;38043;53.224;6.580;2022-10-16T17:46:58;26.20;;;8.23;;
52029;SDS011;38043;53.224;6.580;2022-10-16T17:49:24;21.67;;;6.60;;
52029;SDS011;38043;53.224;6.580;2022-10-16T17:51:50;25.48;;;7.95;;
52029;SDS011;38043;53.224;6.580;2022-10-16T17:56:46;18.08;;;4.95;;
52029;SDS011;38043;53.224;6.580;2022-10-16T17:59:12;20.55;;;5.47;;
52029;SDS011;38043;53.224;6.580;2022-10-16T18:01:38;18.05;;;6.30;;
52029;SDS011;38043;53.224;6.580;2022-10-16T18:04:12;20.48;;;5.63;;
52029;SDS011;38043;53.224;6.580;2022-10-16T18:06:43;17.90;;;5.63;;
52029;SDS011;38043;53.224;6.580;2022-10-16T18:09:10;20.02;;;4.45;;
52029;SDS011;38043;53.224;6.580;2022-10-16T18:11:46;19.15;;;5.32;;
52029;SDS011;38043;53.224;6.580;2022-10-16T18:14:14;26.00;;;6.05;;
52029;SDS011;38043;53.224;6.580;2022-10-16T18:19:08;30.42;;;6.68;;
52029;SDS011;38043;53.224;6.580;2022-10-16T18:21:35;22.35;;;6.35;;
52029;SDS011;38043;53.224;6.580;2022-10-16T18:24:01;17.10;;;5.43;;
52029;SDS011;38043;53.224;6.580;2022-10-16T18:26:26;18.08;;;5.30;;
52029;SDS011;38043;53.224;6.580;2022-10-16T18:28:53;21.40;;;5.70;;
52029;SDS011;38043;53.224;6.580;2022-10-16T18:31:23;20.33;;;4.97;;
52029;SDS011;38043;53.224;6.580;2022-10-16T18:33:53;19.67;;;4.90;;
52029;SDS011;38043;53.224;6.580;2022-10-16T18:36:21;18.63;;;6.03;;
52029;SDS011;38043;53.224;6.580;2022-10-16T18:38:53;20.20;;;5.20;;
52029;SDS011;38043;53.224;6.580;2022-10-16T18:41:20;24.88;;;5.57;;
52029;SDS011;38043;53.224;6.580;2022-10-16T18:43:46;19.13;;;4.95;;
52029;SDS011;38043;53.224;6.580;2022-10-16T18:46:15;15.65;;;4.80;;
52029;SDS011;38043;53.224;6.580;2022-10-16T18:48:45;32.80;;;6.28;;
52029;SDS011;38043;53.224;6.580;2022-10-16T18:51:19;21.98;;;6.07;;
52029;SDS011;38043;53.224;6.580;2022-10-16T18:53:50;20.10;;;6.28;;
52029;SDS011;38043;53.224;6.580;2022-10-16T18:56:20;27.20;;;6.22;;
52029;SDS011;38043;53.224;6.580;2022-10-16T19:01:23;24.90;;;6.32;;
52029;SDS011;38043;53.224;6.580;2022-10-16T19:03:58;17.55;;;5.93;;
52029;SDS011;38043;53.224;6.580;2022-10-16T19:06:29;18.95;;;6.15;;
52029;SDS011;38043;53.224;6.580;2022-10-16T19:08:57;21.60;;;5.47;;
52029;SDS011;38043;53.224;6.580;2022-10-16T19:11:26;15.85;;;5.90;;
52029;SDS011;38043;53.224;6.580;2022-10-16T19:13:52;19.77;;;5.47;;
52029;SDS011;38043;53.224;6.580;2022-10-16T19:16:21;17.10;;;5.30;;
52029;SDS011;38043;53.224;6.580;2022-10-16T19:18:49;19.75;;;5.25;;
52029;SDS011;38043;53.224;6.580;2022-10-16T19:21:22;16.75;;;4.95;;
52029;SDS011;38043;53.224;6.580;2022-10-16T19:23:52;13.82;;;5.03;;
52029;SDS011;38043;53.224;6.580;2022-10-16T19:26:23;23.48;;;5.80;;
52029;SDS011;38043;53.224;6.580;2022-10-16T19:28:50;21.77;;;6.65;;
52029;SDS011;38043;53.224;6.580;2022-10-16T19:31:19;22.52;;;6.72;;
52029;SDS011;38043;53.224;6.580;2022-10-16T19:33:50;19.80;;;5.53;;
52029;SDS011;38043;53.224;6.580;2022-10-16T19:36:19;29.05;;;5.50;;
52029;SDS011;38043;53.224;6.580;2022-10-16T19:38:58;20.67;;;4.93;;
52029;SDS011;38043;53.224;6.580;2022-10-16T19:41:27;19.10;;;3.97;;
52029;SDS011;38043;53.224;6.580;2022-10-16T19:43:58;18.55;;;6.03;;
52029;SDS011;38043;53.224;6.580;2022-10-16T19:46:25;23.10;;;6.35;;
52029;SDS011;38043;53.224;6.580;2022-10-16T19:48:55;16.70;;;4.30;;
52029;SDS011;38043;53.224;6.580;2022-10-16T19:51:23;18.95;;;4.38;;
52029;SDS011;38043;53.224;6.580;2022-10-16T19:53:56;19.63;;;4.30;;
52029;SDS011;38043;53.224;6.580;2022-10-16T19:56:24;15.35;;;3.67;;
52029;SDS011;38043;53.224;6.580;2022-10-16T19:58:52;17.65;;;3.75;;
52029;SDS011;38043;53.224;6.580;2022-10-16T20:03:48;18.85;;;4.05;;
52029;SDS011;38043;53.224;6.580;2022-10-16T20:06:18;15.65;;;5.50;;
52029;SDS011;38043;53.224;6.580;2022-10-16T20:08:55;20.67;;;6.22;;
52029;SDS011;38043;53.224;6.580;2022-10-16T20:11:34;23.27;;;5.43;;
52029;SDS011;38043;53.224;6.580;2022-10-16T20:14:04;18.00;;;4.50;;
52029;SDS011;38043;53.224;6.580;2022-10-16T20:16:30;19.27;;;4.65;;
52029;SDS011;38043;53.224;6.580;2022-10-16T20:18:57;23.65;;;5.20;;
52029;SDS011;38043;53.224;6.580;2022-10-16T20:21:29;16.13;;;4.18;;
52029;SDS011;38043;53.224;6.580;2022-10-16T20:45:20;24.90;;;5.65;;
52029;SDS011;38043;53.224;6.580;2022-10-16T20:50:11;16.02;;;5.05;;
52029;SDS011;38043;53.224;6.580;2022-10-16T20:52:38;15.52;;;4.40;;
52029;SDS011;38043;53.224;6.580;2022-10-16T20:55:04;23.25;;;4.80;;
52029;SDS011;38043;53.224;6.580;2022-10-16T20:57:30;15.02;;;4.38;;
52029;SDS011;38043;53.224;6.580;2022-10-16T20:59:56;21.98;;;7.22;;
52029;SDS011;38043;53.224;6.580;2022-10-16T21:02:22;19.05;;;5.22;;
52029;SDS011;38043;53.224;6.580;2022-10-16T21:04:48;13.63;;;4.95;;
52029;SDS011;38043;53.224;6.580;2022-10-16T21:07:15;19.05;;;5.32;;
52029;SDS011;38043;53.224;6.580;2022-10-16T21:09:41;15.32;;;4.78;;
52029;SDS011;38043;53.224;6.580;2022-10-16T21:12:07;20.02;;;5.65;;
52029;SDS011;38043;53.224;6.580;2022-10-16T21:14:33;20.05;;;5.35;;
52029;SDS011;38043;53.224;6.580;2022-10-16T21:17:02;25.23;;;4.97;;
52029;SDS011;38043;53.224;6.580;2022-10-16T21:21:55;20.50;;;5.65;;
52029;SDS011;38043;53.224;6.580;2022-10-16T21:24:23;15.57;;;5.47;;
52029;SDS011;38043;53.224;6.580;2022-10-16T21:26:49;16.60;;;5.80;;
52029;SDS011;38043;53.224;6.580;2022-10-16T21:29:15;25.20;;;5.80;;
52029;SDS011;38043;53.224;6.580;2022-10-16T21:31:41;17.33;;;5.07;;
52029;SDS011;38043;53.224;6.580;2022-10-16T21:34:07;20.42;;;6.43;;
52029;SDS011;38043;53.224;6.580;2022-10-16T21:36:34;12.48;;;5.72;;
52029;SDS011;38043;53.224;6.580;2022-10-16T21:39:05;17.48;;;5.60;;
52029;SDS011;38043;53.224;6.580;2022-10-16T21:41:33;16.55;;;5.80;;
52029;SDS011;38043;53.224;6.580;2022-10-16T21:43:59;15.80;;;5.28;;
52029;SDS011;38043;53.224;6.580;2022-10-16T21:46:29;13.20;;;5.30;;
52029;SDS011;38043;53.224;6.580;2022-10-16T21:48:57;19.00;;;5.75;;
52029;SDS011;38043;53.224;6.580;2022-10-16T21:51:25;17.83;;;5.53;;
52029;SDS011;38043;53.224;6.580;2022-10-16T21:53:52;16.52;;;5.85;;
52029;SDS011;38043;53.224;6.580;2022-10-16T21:56:19;15.93;;;6.55;;
52029;SDS011;38043;53.224;6.580;2022-10-16T21:58:47;18.40;;;6.60;;
52029;SDS011;38043;53.224;6.580;2022-10-16T22:01:17;18.65;;;6.82;;
52029;SDS011;38043;53.224;6.580;2022-10-16T22:03:44;18.45;;;6.80;;
52029;SDS011;38043;53.224;6.580;2022-10-16T22:06:11;15.88;;;6.50;;
52029;SDS011;38043;53.224;6.580;2022-10-16T22:08:38;22.35;;;6.55;;
52029;SDS011;38043;53.224;6.580;2022-10-16T22:11:11;13.45;;;5.95;;
52029;SDS011;38043;53.224;6.580;2022-10-16T22:13:38;20.50;;;6.07;;
52029;SDS011;38043;53.224;6.580;2022-10-16T22:16:04;19.00;;;6.13;;
52029;SDS011;38043;53.224;6.580;2022-10-16T22:18:31;13.85;;;6.25;;
52029;SDS011;38043;53.224;6.580;2022-10-16T22:20:57;13.65;;;5.65;;
52029;SDS011;38043;53.224;6.580;2022-10-16T22:23:23;13.25;;;5.30;;
52029;SDS011;38043;53.224;6.580;2022-10-16T22:25:49;16.70;;;5.78;;
52029;SDS011;38043;53.224;6.580;2022-10-16T22:28:15;15.95;;;5.50;;
52029;SDS011;38043;53.224;6.580;2022-10-16T22:30:44;14.32;;;5.45;;
52029;SDS011;38043;53.224;6.580;2022-10-16T22:33:10;16.52;;;5.47;;
52029;SDS011;38043;53.224;6.580;2022-10-16T22:35:37;23.40;;;6.43;;
52029;SDS011;38043;53.224;6.580;2022-10-16T22:38:04;17.90;;;5.30;;
52029;SDS011;38043;53.224;6.580;2022-10-16T22:40:34;16.73;;;5.20;;
52029;SDS011;38043;53.224;6.580;2022-10-16T22:43:01;13.40;;;5.18;;
52029;SDS011;38043;53.224;6.580;2022-10-16T22:45:32;15.43;;;5.40;;
52029;SDS011;38043;53.224;6.580;2022-10-16T22:47:59;20.30;;;5.65;;
52029;SDS011;38043;53.224;6.580;2022-10-16T22:50:25;20.63;;;5.15;;
52029;SDS011;38043;53.224;6.580;2022-10-16T22:52:51;15.80;;;5.30;;
52029;SDS011;38043;53.224;6.580;2022-10-16T22:55:17;19.70;;;5.70;;
52029;SDS011;38043;53.224;6.580;2022-10-16T22:57:43;15.40;;;5.07;;
52029;SDS011;38043;53.224;6.580;2022-10-16T23:00:10;18.42;;;5.38;;
52029;SDS011;38043;53.224;6.580;2022-10-16T23:02:39;13.73;;;4.93;;
52029;SDS011;38043;53.224;6.580;2022-10-16T23:05:05;17.02;;;4.90;;
52029;SDS011;38043;53.224;6.580;2022-10-16T23:07:32;23.40;;;5.97;;
52029;SDS011;38043;53.224;6.580;2022-10-16T23:09:58;25.50;;;5.53;;
52029;SDS011;38043;53.224;6.580;2022-10-16T23:12:24;16.13;;;5.60;;
52029;SDS011;38043;53.224;6.580;2022-10-16T23:14:53;13.73;;;5.40;;
52029;SDS011;38043;53.224;6.580;2022-10-16T23:17:19;14.80;;;4.88;;
52029;SDS011;38043;53.224;6.580;2022-10-16T23:19:45;13.07;;;4.95;;
52029;SDS011;38043;53.224;6.580;2022-10-16T23:22:11;11.85;;;4.72;;
52029;SDS011;38043;53.224;6.580;2022-10-16T23:24:37;17.13;;;4.75;;
52029;SDS011;38043;53.224;6.580;2022-10-16T23:27:03;14.68;;;4.63;;
52029;SDS011;38043;53.224;6.580;2022-10-16T23:29:28;14.18;;;5.47;;
52029;SDS011;38043;53.224;6.580;2022-10-16T23:32:12;16.15;;;4.80;;
52029;SDS011;38043;53.224;6.580;2022-10-16T23:34:37;14.80;;;4.57;;
52029;SDS011;38043;53.224;6.580;2022-10-16T23:37:03;15.70;;;5.47;;
52029;SDS011;38043;53.224;6.580;2022-10-16T23:39:30;14.00;;;4.68;;
52029;SDS011;38043;53.224;6.580;2022-10-16T23:41:56;17.02;;;4.55;;
52029;SDS011;38043;53.224;6.580;2022-10-16T23:44:21;16.50;;;4.50;;
52029;SDS011;38043;53.224;6.580;2022-10-16T23:46:47;19.10;;;5.28;;
52029;SDS011;38043;53.224;6.580;2022-10-16T23:49:13;16.58;;;4.68;;
52029;SDS011;38043;53.224;6.580;2022-10-16T23:51:38;18.75;;;4.70;;
52029;SDS011;38043;53.224;6.580;2022-10-16T23:54:04;12.35;;;4.22;;
52029;SDS011;38043;53.224;6.580;2022-10-16T23:56:30;13.73;;;4.57;;
52029;SDS011;38043;53.224;6.580;2022-10-16T23:58:56;14.98;;;4.72;;
